NY33 weather

Hidden Hills Ranch Airport
Palmyra, New York, United States

Public forecast

Using degrees Fahrenheit for public forecast. Weather courtesy of forecast.io.

Closest aviation weather report (METAR) to Hidden Hills Ranch Airport

Closest report is Greater Rochester International Airport, 19.0 nm (35.2 km) W. Retrieved 2019/11/18 01:54 UTC (30 minutes ago):

KROC 180154Z 14008KT 10SM BKN032 02/M04 A3004 RMK AO2 SLP182 T00221039

Closest aviation forecast (TAF) to Hidden Hills Ranch Airport

Closest forecast is Greater Rochester International Airport, 19.0 nm (35.2 km) W. Retrieved 2019-11-18 00:36 UTC (2 hours ago):

TAF KROC 172332Z 1800/1824 14008KT P6SM BKN250 FM181200 14005KT P6SM BKN080 FM181800 08005KT P6SM SCT035 BKN060 FM182100 05005KT P6SM OVC025